createdAt,value
2017-09-10T00:00:14.373Z,18.91
2017-09-10T00:02:40.531Z,18.86
2017-09-10T00:05:06.687Z,18.75
2017-09-10T00:07:32.890Z,18.72
2017-09-10T00:09:59.069Z,18.66
2017-09-10T00:12:25.224Z,18.63
2017-09-10T00:14:51.630Z,18.59
2017-09-10T00:17:17.798Z,18.55
2017-09-10T00:19:43.964Z,18.46
2017-09-10T00:22:10.198Z,18.51
2017-09-10T00:24:36.381Z,18.50
2017-09-10T00:27:02.547Z,18.46
2017-09-10T00:29:28.775Z,18.43
2017-09-10T00:31:54.950Z,18.42
2017-09-10T00:34:21.113Z,18.35
2017-09-10T00:36:47.332Z,18.38
2017-09-10T00:39:13.502Z,18.34
2017-09-10T00:41:39.670Z,18.29
2017-09-10T00:44:05.896Z,18.24
2017-09-10T00:46:32.215Z,18.24
2017-09-10T00:48:58.359Z,18.20
2017-09-10T00:51:24.711Z,18.15
2017-09-10T00:53:50.877Z,18.11
2017-09-10T00:56:17.132Z,18.08
2017-09-10T00:58:43.342Z,18.10
2017-09-10T01:01:09.530Z,18.10
2017-09-10T01:03:35.706Z,18.07
2017-09-10T01:06:01.909Z,18.12
2017-09-10T01:08:28.068Z,18.15
2017-09-10T01:10:54.232Z,18.17
2017-09-10T01:13:20.446Z,18.16
2017-09-10T01:15:46.630Z,18.14
2017-09-10T01:18:12.812Z,18.11
2017-09-10T01:20:39.037Z,18.04
2017-09-10T01:23:05.207Z,17.99
2017-09-10T01:25:31.464Z,17.95
2017-09-10T01:27:57.700Z,17.95
2017-09-10T01:30:23.884Z,17.84
2017-09-10T01:32:50.050Z,17.72
2017-09-10T01:35:16.302Z,17.61
2017-09-10T01:37:42.472Z,17.52
2017-09-10T01:40:08.670Z,17.47
2017-09-10T01:42:34.911Z,17.51
2017-09-10T01:45:01.094Z,17.54
2017-09-10T01:47:27.249Z,17.44
2017-09-10T01:49:53.460Z,17.45
2017-09-10T01:52:19.648Z,17.42
2017-09-10T01:54:45.834Z,17.34
2017-09-10T01:57:12.059Z,17.27
2017-09-10T01:59:38.220Z,17.26
2017-09-10T02:02:04.385Z,17.23
2017-09-10T02:04:30.639Z,17.22
2017-09-10T02:06:56.836Z,17.22
2017-09-10T02:09:23.020Z,17.23
2017-09-10T02:11:49.239Z,17.19
2017-09-10T02:14:15.405Z,17.17
2017-09-10T02:16:41.566Z,17.15
2017-09-10T02:19:07.792Z,17.14
2017-09-10T02:21:33.943Z,17.09
2017-09-10T02:24:00.106Z,17.01
2017-09-10T02:26:26.319Z,16.97
2017-09-10T02:28:52.483Z,16.97
2017-09-10T02:31:18.666Z,16.92
2017-09-10T02:33:44.901Z,16.94
2017-09-10T02:36:11.069Z,16.86
2017-09-10T02:38:37.242Z,16.84
2017-09-10T02:41:03.472Z,16.77
2017-09-10T02:43:29.649Z,16.74
2017-09-10T02:45:55.825Z,16.79
2017-09-10T02:48:22.119Z,16.75
2017-09-10T02:50:48.276Z,16.78
2017-09-10T02:53:14.440Z,16.70
2017-09-10T02:55:40.676Z,16.70
2017-09-10T02:58:06.846Z,16.62
2017-09-10T03:00:33.027Z,16.60
2017-09-10T03:02:59.255Z,16.63
2017-09-10T03:05:25.428Z,16.61
2017-09-10T03:07:51.611Z,16.59
2017-09-10T03:10:17.844Z,16.60
2017-09-10T03:12:44.020Z,16.54
2017-09-10T03:15:10.190Z,16.55
2017-09-10T03:17:36.419Z,16.52
2017-09-10T03:20:02.577Z,16.52
2017-09-10T03:22:28.748Z,16.46
2017-09-10T03:24:55.001Z,16.42
2017-09-10T03:27:21.166Z,16.38
2017-09-10T03:29:47.322Z,16.37
2017-09-10T03:32:13.558Z,16.35
2017-09-10T03:34:39.713Z,16.32
2017-09-10T03:37:05.913Z,16.31
2017-09-10T03:39:32.134Z,16.31
2017-09-10T03:41:58.305Z,16.40
2017-09-10T03:44:24.488Z,16.41
2017-09-10T03:46:50.711Z,16.39
2017-09-10T03:49:16.881Z,16.32
2017-09-10T03:51:43.038Z,16.30
2017-09-10T03:54:09.295Z,16.31
2017-09-10T03:56:35.453Z,16.30
2017-09-10T03:59:01.611Z,16.32
2017-09-10T04:01:27.843Z,16.33
2017-09-10T04:03:54.070Z,16.37
2017-09-10T04:06:20.243Z,16.43
2017-09-10T04:08:46.454Z,16.60
2017-09-10T04:11:12.620Z,16.99
2017-09-10T04:13:38.773Z,17.50
2017-09-10T04:16:04.981Z,17.82
2017-09-10T04:18:31.140Z,17.80
2017-09-10T04:20:57.310Z,18.00
2017-09-10T04:23:23.542Z,18.37
2017-09-10T04:25:49.708Z,18.69
2017-09-10T04:28:15.892Z,19.14
2017-09-10T04:30:42.120Z,19.60
2017-09-10T04:33:08.280Z,20.07
2017-09-10T04:35:34.632Z,20.66
2017-09-10T04:38:00.853Z,21.26
2017-09-10T04:40:27.019Z,21.82
2017-09-10T04:42:53.182Z,22.03
2017-09-10T04:45:19.386Z,22.28
2017-09-10T04:47:45.563Z,22.94
2017-09-10T04:50:11.731Z,23.42
2017-09-10T04:52:37.969Z,23.71
2017-09-10T04:55:04.140Z,23.72
2017-09-10T04:57:30.304Z,24.14
2017-09-10T04:59:56.531Z,24.48
2017-09-10T05:02:22.712Z,24.96
2017-09-10T05:04:48.880Z,25.04
2017-09-10T05:07:15.120Z,25.18
2017-09-10T05:09:41.266Z,25.84
2017-09-10T05:12:07.445Z,25.74
2017-09-10T05:14:33.652Z,25.99
2017-09-10T05:16:59.801Z,26.41
2017-09-10T05:19:25.960Z,26.76
2017-09-10T05:21:52.207Z,27.67
2017-09-10T05:24:18.365Z,27.97
2017-09-10T05:26:44.526Z,28.53
2017-09-10T05:29:10.759Z,29.05
2017-09-10T05:31:37.011Z,29.11
2017-09-10T05:34:03.242Z,29.54
2017-09-10T05:36:29.477Z,29.69
2017-09-10T05:38:55.613Z,30.18
2017-09-10T05:41:21.777Z,30.49
2017-09-10T05:43:48.064Z,30.10
2017-09-10T05:46:14.214Z,29.88
2017-09-10T05:48:40.379Z,30.06
2017-09-10T05:51:06.666Z,30.80
2017-09-10T05:53:32.824Z,30.68
2017-09-10T05:55:59.002Z,30.82
2017-09-10T05:58:25.229Z,30.97
2017-09-10T06:00:51.396Z,31.77
2017-09-10T06:03:17.577Z,32.34
2017-09-10T06:05:43.811Z,32.63
2017-09-10T06:08:09.988Z,33.27
2017-09-10T06:10:36.164Z,33.22
2017-09-10T06:13:02.833Z,33.08
2017-09-10T06:15:29.006Z,33.66
2017-09-10T06:17:55.190Z,34.51
2017-09-10T06:20:21.430Z,34.77
2017-09-10T06:22:47.665Z,34.61
2017-09-10T06:25:13.863Z,34.35
2017-09-10T06:27:40.100Z,34.62
2017-09-10T06:30:06.328Z,34.17
2017-09-10T06:32:32.544Z,34.54
2017-09-10T06:34:58.809Z,33.82
2017-09-10T06:37:25.027Z,33.86
2017-09-10T06:39:51.254Z,34.75
2017-09-10T06:42:17.546Z,35.84
2017-09-10T06:44:43.749Z,35.47
2017-09-10T06:47:09.977Z,35.17
2017-09-10T06:49:36.253Z,35.09
2017-09-10T06:52:02.473Z,35.03
2017-09-10T06:54:28.688Z,35.51
2017-09-10T06:56:54.971Z,36.21
2017-09-10T06:59:21.221Z,36.00
2017-09-10T07:01:47.464Z,35.83
2017-09-10T07:04:13.738Z,35.32
2017-09-10T07:06:39.944Z,35.27
2017-09-10T07:09:06.130Z,35.79
2017-09-10T07:11:32.506Z,35.58
2017-09-10T07:13:58.752Z,34.72
2017-09-10T07:16:24.972Z,34.88
2017-09-10T07:18:51.737Z,35.42
2017-09-10T07:21:17.971Z,34.84
2017-09-10T07:23:44.266Z,34.22
2017-09-10T07:26:10.571Z,35.17
2017-09-10T07:28:36.786Z,35.55
2017-09-10T07:31:03.024Z,35.72
2017-09-10T07:33:29.306Z,35.11
2017-09-10T07:35:55.521Z,36.07
2017-09-10T07:38:21.715Z,36.61
2017-09-10T07:40:47.974Z,37.31
2017-09-10T07:43:14.196Z,37.57
2017-09-10T07:45:40.418Z,37.46
2017-09-10T07:48:06.698Z,37.42
2017-09-10T07:50:32.923Z,37.92
2017-09-10T07:52:59.147Z,37.99
2017-09-10T07:55:25.527Z,37.75
2017-09-10T07:57:51.745Z,38.25
2017-09-10T08:00:17.970Z,38.10
2017-09-10T08:02:44.268Z,37.76
2017-09-10T08:05:10.488Z,37.70
2017-09-10T08:07:36.738Z,38.43
2017-09-10T08:10:03.001Z,38.11
2017-09-10T08:12:29.224Z,38.25
2017-09-10T08:14:55.441Z,38.60
2017-09-10T08:17:21.791Z,39.33
2017-09-10T08:19:48.033Z,39.74
2017-09-10T08:22:14.261Z,39.71
2017-09-10T08:24:40.531Z,39.93
2017-09-10T08:27:06.899Z,40.20
2017-09-10T08:29:33.136Z,38.84
2017-09-10T08:31:59.422Z,38.57
2017-09-10T08:34:25.641Z,39.10
2017-09-10T08:36:51.883Z,38.50
2017-09-10T08:39:18.134Z,36.59
2017-09-10T08:41:44.357Z,36.58
2017-09-10T08:44:10.604Z,36.85
2017-09-10T08:46:37.143Z,37.64
2017-09-10T08:49:03.355Z,36.33
2017-09-10T08:51:29.580Z,37.10
2017-09-10T08:53:55.934Z,38.23
2017-09-10T08:56:22.133Z,38.63
2017-09-10T08:58:48.356Z,39.15
2017-09-10T09:01:14.644Z,39.29
2017-09-10T09:03:40.830Z,38.91
2017-09-10T09:06:07.055Z,39.42
2017-09-10T09:08:33.298Z,39.81
2017-09-10T09:10:59.708Z,39.67
2017-09-10T09:13:25.910Z,39.62
2017-09-10T09:15:52.191Z,39.57
2017-09-10T09:18:18.402Z,39.67
2017-09-10T09:20:44.622Z,38.83
2017-09-10T09:23:10.924Z,39.37
2017-09-10T09:25:37.155Z,39.63
2017-09-10T09:28:03.362Z,39.62
2017-09-10T09:30:29.628Z,39.49
2017-09-10T09:32:55.818Z,38.81
2017-09-10T09:35:22.013Z,39.61
2017-09-10T09:37:48.269Z,39.54
2017-09-10T09:40:14.477Z,38.80
2017-09-10T09:42:40.690Z,39.35
2017-09-10T09:45:06.957Z,39.15
2017-09-10T09:47:33.162Z,38.77
2017-09-10T09:49:59.375Z,37.90
2017-09-10T09:52:25.648Z,38.84
2017-09-10T09:54:51.858Z,38.89
2017-09-10T09:57:18.106Z,40.64
2017-09-10T09:59:44.373Z,41.20
2017-09-10T10:02:10.571Z,40.92
2017-09-10T10:04:36.785Z,40.45
2017-09-10T10:07:03.037Z,41.33
2017-09-10T10:09:29.260Z,40.57
2017-09-10T10:11:55.483Z,40.71
2017-09-10T10:14:21.788Z,39.03
2017-09-10T10:16:47.991Z,39.20
2017-09-10T10:19:14.181Z,40.36
2017-09-10T10:21:40.444Z,41.33
2017-09-10T10:24:06.643Z,41.89
2017-09-10T10:26:32.860Z,41.71
2017-09-10T10:28:59.112Z,40.93
2017-09-10T10:31:25.320Z,41.11
2017-09-10T10:33:51.550Z,41.38
2017-09-10T10:36:17.821Z,41.15
2017-09-10T10:38:44.024Z,40.60
2017-09-10T10:41:10.237Z,40.76
2017-09-10T10:43:36.485Z,40.57
2017-09-10T10:46:02.693Z,38.76
2017-09-10T10:48:28.902Z,38.96
2017-09-10T10:50:55.186Z,39.06
2017-09-10T10:53:21.381Z,39.35
2017-09-10T10:55:47.587Z,40.74
2017-09-10T10:58:13.861Z,40.97
2017-09-10T11:00:40.057Z,40.07
2017-09-10T11:03:06.270Z,40.58
2017-09-10T11:05:32.534Z,39.83
2017-09-10T11:07:58.744Z,41.01
2017-09-10T11:10:24.959Z,41.27
2017-09-10T11:12:51.177Z,39.75
2017-09-10T11:15:17.602Z,40.55
2017-09-10T11:17:43.803Z,41.28
2017-09-10T11:20:10.054Z,40.85
2017-09-10T11:22:36.390Z,41.08
2017-09-10T11:25:02.618Z,41.51
2017-09-10T11:27:28.848Z,41.94
2017-09-10T11:29:55.118Z,42.04
2017-09-10T11:32:21.403Z,42.47
2017-09-10T11:34:47.678Z,42.69
2017-09-10T11:37:13.948Z,43.27
2017-09-10T11:39:40.149Z,43.43
2017-09-10T11:42:06.381Z,42.80
2017-09-10T11:44:32.713Z,41.80
2017-09-10T11:46:58.911Z,40.99
2017-09-10T11:49:25.122Z,40.23
2017-09-10T11:51:51.402Z,40.33
2017-09-10T11:54:17.620Z,40.60
2017-09-10T11:56:43.836Z,41.44
2017-09-10T11:59:10.264Z,41.26
2017-09-10T12:01:36.499Z,42.73
2017-09-10T12:04:02.710Z,41.29
2017-09-10T12:06:28.968Z,42.40
2017-09-10T12:08:55.205Z,41.33
2017-09-10T12:11:21.448Z,40.97
2017-09-10T12:13:47.723Z,41.54
2017-09-10T12:16:13.939Z,41.61
2017-09-10T12:18:40.161Z,41.66
2017-09-10T12:21:06.448Z,42.14
2017-09-10T12:23:32.674Z,41.81
2017-09-10T12:25:58.891Z,41.40
2017-09-10T12:28:25.161Z,41.55
2017-09-10T12:30:51.399Z,42.21
2017-09-10T12:33:17.630Z,42.69
2017-09-10T12:35:43.892Z,42.94
2017-09-10T12:38:10.122Z,41.90
2017-09-10T12:40:36.349Z,41.13
2017-09-10T12:43:02.633Z,41.08
2017-09-10T12:45:28.836Z,42.24
2017-09-10T12:47:55.054Z,41.09
2017-09-10T12:50:21.336Z,42.86
2017-09-10T12:52:47.551Z,42.55
2017-09-10T12:55:13.787Z,43.06
2017-09-10T12:57:40.183Z,41.06
2017-09-10T13:00:06.408Z,41.25
2017-09-10T13:02:32.776Z,42.17
2017-09-10T13:04:59.128Z,42.75
2017-09-10T13:07:25.387Z,39.69
2017-09-10T13:09:51.616Z,40.32
2017-09-10T13:12:18.029Z,41.38
2017-09-10T13:14:44.274Z,40.98
2017-09-10T13:17:10.484Z,41.19
2017-09-10T13:19:36.762Z,41.34
2017-09-10T13:22:02.970Z,40.63
2017-09-10T13:24:29.195Z,39.89
2017-09-10T13:26:55.492Z,39.21
2017-09-10T13:29:21.700Z,38.08
2017-09-10T13:31:47.923Z,37.49
2017-09-10T13:34:14.196Z,36.72
2017-09-10T13:36:40.408Z,36.45
2017-09-10T13:39:06.607Z,36.16
2017-09-10T13:41:33.018Z,35.81
2017-09-10T13:43:59.268Z,35.22
2017-09-10T13:46:25.472Z,34.60
2017-09-10T13:48:51.734Z,33.65
2017-09-10T13:51:17.952Z,33.38
2017-09-10T13:53:44.190Z,33.35
2017-09-10T13:56:10.480Z,33.15
2017-09-10T13:58:36.692Z,32.84
2017-09-10T14:01:02.900Z,32.34
2017-09-10T14:03:29.152Z,32.48
2017-09-10T14:05:55.386Z,32.52
2017-09-10T14:08:21.623Z,32.42
2017-09-10T14:10:47.955Z,32.48
2017-09-10T14:13:14.156Z,32.43
2017-09-10T14:15:40.388Z,32.19
2017-09-10T14:18:06.664Z,32.24
2017-09-10T14:20:32.872Z,32.24
2017-09-10T14:22:59.092Z,32.27
2017-09-10T14:25:25.345Z,32.08
2017-09-10T14:27:51.571Z,31.89
2017-09-10T14:30:17.788Z,31.98
2017-09-10T14:32:44.063Z,31.99
2017-09-10T14:35:10.283Z,32.01
2017-09-10T14:37:36.498Z,31.97
2017-09-10T14:40:02.778Z,32.04
2017-09-10T14:42:29.006Z,31.86
2017-09-10T14:44:55.231Z,31.79
2017-09-10T14:47:21.495Z,31.70
2017-09-10T14:49:47.704Z,31.60
2017-09-10T14:52:13.920Z,31.51
2017-09-10T14:54:40.166Z,31.59
2017-09-10T14:57:06.362Z,31.63
2017-09-10T14:59:32.592Z,31.58
2017-09-10T15:01:58.867Z,31.47
2017-09-10T15:04:25.094Z,31.31
2017-09-10T15:06:51.412Z,31.25
2017-09-10T15:09:17.743Z,31.24
2017-09-10T15:11:43.964Z,31.23
2017-09-10T15:14:10.189Z,31.19
2017-09-10T15:16:36.442Z,31.14
2017-09-10T15:19:02.696Z,31.10
2017-09-10T15:21:28.924Z,30.95
2017-09-10T15:23:55.197Z,30.92
2017-09-10T15:26:21.414Z,30.89
2017-09-10T15:28:47.625Z,30.82
2017-09-10T15:31:13.903Z,30.75
2017-09-10T15:33:40.121Z,30.61
2017-09-10T15:36:07.152Z,30.48
2017-09-10T15:38:33.410Z,30.42
2017-09-10T15:40:59.630Z,30.30
2017-09-10T15:43:25.835Z,30.13
2017-09-10T15:45:52.101Z,30.05
2017-09-10T15:48:18.314Z,29.97
2017-09-10T15:50:44.509Z,29.82
2017-09-10T15:53:10.811Z,29.75
2017-09-10T15:55:37.016Z,29.63
2017-09-10T15:58:03.225Z,29.56
2017-09-10T16:00:29.498Z,29.48
2017-09-10T16:02:55.901Z,29.36
2017-09-10T16:05:22.114Z,29.26
2017-09-10T16:07:48.362Z,29.14
2017-09-10T16:10:14.552Z,28.99
2017-09-10T16:12:40.762Z,28.81
2017-09-10T16:15:07.033Z,28.54
2017-09-10T16:17:33.260Z,28.31
2017-09-10T16:19:59.464Z,28.04
2017-09-10T16:22:25.741Z,27.78
2017-09-10T16:24:51.931Z,27.53
2017-09-10T16:27:18.142Z,27.33
2017-09-10T16:29:44.387Z,27.03
2017-09-10T16:32:10.590Z,26.68
2017-09-10T16:34:36.808Z,26.47
2017-09-10T16:37:03.698Z,26.25
2017-09-10T16:39:29.896Z,26.10
2017-09-10T16:41:56.154Z,25.93
2017-09-10T16:44:22.411Z,25.79
2017-09-10T16:46:48.659Z,25.69
2017-09-10T16:49:14.892Z,25.48
2017-09-10T16:51:41.174Z,25.35
2017-09-10T16:54:07.410Z,25.16
2017-09-10T16:56:33.635Z,25.05
2017-09-10T16:58:59.917Z,24.94
2017-09-10T17:01:26.143Z,24.87
2017-09-10T17:03:52.366Z,24.81
2017-09-10T17:06:18.668Z,24.61
2017-09-10T17:08:44.915Z,24.48
2017-09-10T17:11:11.160Z,24.35
2017-09-10T17:13:37.420Z,24.22
2017-09-10T17:16:03.665Z,24.06
2017-09-10T17:18:29.881Z,23.91
2017-09-10T17:20:56.139Z,23.88
2017-09-10T17:23:22.367Z,23.80
2017-09-10T17:25:48.579Z,23.79
2017-09-10T17:28:14.857Z,23.76
2017-09-10T17:30:41.079Z,23.71
2017-09-10T17:33:07.310Z,23.64
2017-09-10T17:35:33.585Z,23.58
2017-09-10T17:37:59.814Z,23.44
2017-09-10T17:40:26.013Z,23.30
2017-09-10T17:42:52.298Z,23.21
2017-09-10T17:45:18.503Z,23.13
2017-09-10T17:47:44.714Z,23.17
2017-09-10T17:50:10.997Z,23.13
2017-09-10T17:52:37.207Z,23.04
2017-09-10T17:55:03.435Z,22.88
2017-09-10T17:57:29.712Z,22.79
2017-09-10T17:59:55.938Z,22.66
2017-09-10T18:02:22.130Z,22.48
2017-09-10T18:04:48.410Z,22.25
2017-09-10T18:07:14.618Z,22.13
2017-09-10T18:09:40.847Z,22.14
2017-09-10T18:12:07.164Z,22.07
2017-09-10T18:14:33.389Z,21.99
2017-09-10T18:16:59.617Z,21.95
2017-09-10T18:19:25.968Z,21.94
2017-09-10T18:21:52.190Z,21.96
2017-09-10T18:24:18.400Z,21.89
2017-09-10T18:26:44.657Z,21.76
2017-09-10T18:29:10.852Z,21.81
2017-09-10T18:31:37.081Z,21.79
2017-09-10T18:34:03.358Z,21.79
2017-09-10T18:36:29.602Z,21.72
2017-09-10T18:38:55.816Z,21.57
2017-09-10T18:41:22.113Z,21.52
2017-09-10T18:43:48.333Z,21.53
2017-09-10T18:46:14.546Z,21.40
2017-09-10T18:48:40.812Z,21.33
2017-09-10T18:51:07.029Z,21.22
2017-09-10T18:53:33.260Z,21.08
2017-09-10T18:55:59.547Z,21.05
2017-09-10T18:58:25.743Z,21.05
2017-09-10T19:00:51.982Z,20.93
2017-09-10T19:03:18.265Z,20.84
2017-09-10T19:05:44.468Z,20.77
2017-09-10T19:08:10.676Z,20.69
2017-09-10T19:10:36.934Z,20.58
2017-09-10T19:13:03.149Z,20.45
2017-09-10T19:15:29.355Z,20.38
2017-09-10T19:17:55.647Z,20.34
2017-09-10T19:20:21.861Z,20.35
2017-09-10T19:22:48.083Z,20.29
2017-09-10T19:25:14.340Z,20.18
2017-09-10T19:27:40.556Z,20.10
2017-09-10T19:30:06.771Z,20.07
2017-09-10T19:32:33.046Z,20.10
2017-09-10T19:34:59.295Z,20.02
2017-09-10T19:37:25.510Z,20.12
2017-09-10T19:39:51.812Z,20.19
2017-09-10T19:42:18.057Z,20.28
2017-09-10T19:44:44.287Z,20.34
2017-09-10T19:47:10.580Z,20.35
2017-09-10T19:49:36.805Z,20.32
2017-09-10T19:52:03.017Z,20.24
2017-09-10T19:54:29.291Z,20.17
2017-09-10T19:56:55.494Z,20.08
2017-09-10T19:59:21.724Z,19.99
2017-09-10T20:01:48.011Z,19.97
2017-09-10T20:04:14.360Z,19.90
2017-09-10T20:06:40.575Z,19.83
2017-09-10T20:09:06.836Z,19.72
2017-09-10T20:11:33.062Z,19.63
2017-09-10T20:13:59.284Z,19.57
2017-09-10T20:16:25.531Z,19.54
2017-09-10T20:18:51.729Z,19.48
2017-09-10T20:21:17.938Z,19.53
2017-09-10T20:23:44.186Z,19.52
2017-09-10T20:26:10.395Z,19.53
2017-09-10T20:28:36.619Z,19.64
2017-09-10T20:31:02.889Z,19.66
2017-09-10T20:33:29.091Z,19.74
2017-09-10T20:35:55.304Z,19.76
2017-09-10T20:38:21.622Z,19.77
2017-09-10T20:40:47.867Z,19.72
2017-09-10T20:43:14.090Z,19.61
2017-09-10T20:45:40.359Z,19.51
2017-09-10T20:48:06.592Z,19.41
2017-09-10T20:50:32.883Z,19.54
2017-09-10T20:52:59.154Z,19.44
2017-09-10T20:55:25.373Z,19.30
2017-09-10T20:57:51.597Z,19.37
2017-09-10T21:00:17.883Z,19.33
2017-09-10T21:02:44.094Z,19.15
2017-09-10T21:05:10.302Z,19.08
2017-09-10T21:07:36.561Z,18.95
2017-09-10T21:10:02.784Z,18.91
2017-09-10T21:12:29.005Z,18.91
2017-09-10T21:14:55.280Z,18.82
2017-09-10T21:17:21.485Z,18.68
2017-09-10T21:19:47.698Z,18.64
2017-09-10T21:22:13.951Z,18.62
2017-09-10T21:24:40.186Z,18.63
2017-09-10T21:27:06.414Z,18.69
2017-09-10T21:29:32.671Z,18.73
2017-09-10T21:31:58.881Z,18.68
2017-09-10T21:34:25.110Z,18.65
2017-09-10T21:36:51.374Z,18.59
2017-09-10T21:39:17.612Z,18.58
2017-09-10T21:41:43.823Z,18.43
2017-09-10T21:44:10.076Z,18.34
2017-09-10T21:46:36.295Z,18.41
2017-09-10T21:49:02.504Z,18.42
2017-09-10T21:51:28.759Z,18.39
2017-09-10T21:53:54.972Z,18.23
2017-09-10T21:56:21.187Z,18.22
2017-09-10T21:58:47.467Z,18.22
2017-09-10T22:01:13.668Z,18.13
2017-09-10T22:03:39.889Z,17.99
2017-09-10T22:06:06.141Z,17.89
2017-09-10T22:08:32.346Z,17.79
2017-09-10T22:10:58.550Z,17.82
2017-09-10T22:13:24.804Z,17.83
2017-09-10T22:15:51.023Z,17.89
2017-09-10T22:18:17.236Z,17.80
2017-09-10T22:20:43.503Z,17.72
2017-09-10T22:23:09.701Z,17.72
2017-09-10T22:25:35.920Z,17.65
2017-09-10T22:28:02.176Z,17.66
2017-09-10T22:30:28.434Z,17.80
2017-09-10T22:32:54.648Z,17.79
2017-09-10T22:35:20.920Z,17.83
2017-09-10T22:37:47.281Z,17.75
2017-09-10T22:40:13.499Z,17.70
2017-09-10T22:42:39.816Z,17.68
2017-09-10T22:45:06.031Z,17.61
2017-09-10T22:47:32.244Z,17.62
2017-09-10T22:49:58.519Z,17.59
2017-09-10T22:52:24.730Z,17.57
2017-09-10T22:54:50.955Z,17.48
2017-09-10T22:57:17.220Z,17.53
2017-09-10T22:59:43.465Z,17.66
2017-09-10T23:02:09.684Z,17.67
2017-09-10T23:04:35.961Z,17.62
2017-09-10T23:07:02.198Z,17.66
2017-09-10T23:09:28.429Z,17.66
2017-09-10T23:11:54.700Z,17.71
2017-09-10T23:14:20.909Z,17.69
2017-09-10T23:16:47.127Z,17.52
2017-09-10T23:19:13.390Z,17.36
2017-09-10T23:21:39.628Z,17.26
2017-09-10T23:24:05.847Z,17.35
2017-09-10T23:26:32.138Z,17.35
2017-09-10T23:28:58.368Z,17.34
2017-09-10T23:31:24.580Z,17.27
2017-09-10T23:33:50.883Z,17.22
2017-09-10T23:36:17.111Z,17.12
2017-09-10T23:38:43.327Z,17.03
2017-09-10T23:41:09.610Z,17.06
2017-09-10T23:43:35.817Z,17.03
2017-09-10T23:46:02.062Z,16.98
2017-09-10T23:48:28.347Z,17.00
2017-09-10T23:50:54.563Z,17.03
2017-09-10T23:53:20.803Z,17.01
2017-09-10T23:55:47.082Z,16.98
2017-09-10T23:58:13.293Z,17.11
